sensor_id;sensor_type;location;lat;lon;timestamp;pressure;altitude;pressure_sealevel;temperature;humidity
42887;BME280;29032;56.028;92.904;2023-08-20T00:01:30;99156.16;;;14.60;64.35
42887;BME280;29032;56.028;92.904;2023-08-20T00:06:33;99143.34;;;14.64;64.73
42887;BME280;29032;56.028;92.904;2023-08-20T00:11:36;99146.69;;;14.71;64.56
42887;BME280;29032;56.028;92.904;2023-08-20T00:16:39;99146.31;;;14.74;64.28
42887;BME280;29032;56.028;92.904;2023-08-20T00:21:41;99128.44;;;14.77;64.35
42887;BME280;29032;56.028;92.904;2023-08-20T00:26:45;99129.00;;;14.83;64.53
42887;BME280;29032;56.028;92.904;2023-08-20T00:31:47;99130.69;;;14.79;64.26
42887;BME280;29032;56.028;92.904;2023-08-20T00:36:50;99131.44;;;14.87;64.35
42887;BME280;29032;56.028;92.904;2023-08-20T00:41:53;99125.13;;;14.94;64.19
42887;BME280;29032;56.028;92.904;2023-08-20T00:46:55;99134.97;;;14.87;64.18
42887;BME280;29032;56.028;92.904;2023-08-20T00:51:58;99125.66;;;14.85;63.84
42887;BME280;29032;56.028;92.904;2023-08-20T00:57:02;99123.41;;;14.91;64.10
42887;BME280;29032;56.028;92.904;2023-08-20T01:02:04;99126.97;;;14.99;63.60
42887;BME280;29032;56.028;92.904;2023-08-20T01:07:14;99122.88;;;15.15;63.60
42887;BME280;29032;56.028;92.904;2023-08-20T01:12:21;99120.25;;;15.17;63.61
42887;BME280;29032;56.028;92.904;2023-08-20T01:17:24;99124.91;;;15.23;63.39
42887;BME280;29032;56.028;92.904;2023-08-20T01:28:25;99112.53;;;15.48;63.69
42887;BME280;29032;56.028;92.904;2023-08-20T01:33:28;99108.44;;;15.42;63.20
42887;BME280;29032;56.028;92.904;2023-08-20T01:38:30;99113.09;;;15.47;62.66
42887;BME280;29032;56.028;92.904;2023-08-20T01:43:34;99103.41;;;15.48;62.61
42887;BME280;29032;56.028;92.904;2023-08-20T01:48:36;99117.97;;;15.46;62.63
42887;BME280;29032;56.028;92.904;2023-08-20T01:53:38;99110.50;;;15.41;61.76
42887;BME280;29032;56.028;92.904;2023-08-20T01:58:41;99106.78;;;15.39;62.42
42887;BME280;29032;56.028;92.904;2023-08-20T02:03:43;99096.75;;;15.36;63.36
42887;BME280;29032;56.028;92.904;2023-08-20T02:08:45;99095.41;;;15.44;63.71
42887;BME280;29032;56.028;92.904;2023-08-20T02:13:49;99090.19;;;15.56;63.31
42887;BME280;29032;56.028;92.904;2023-08-20T02:18:51;99097.81;;;15.63;62.13
42887;BME280;29032;56.028;92.904;2023-08-20T02:23:53;99107.09;;;15.66;62.19
42887;BME280;29032;56.028;92.904;2023-08-20T02:28:57;99103.00;;;15.74;61.95
42887;BME280;29032;56.028;92.904;2023-08-20T02:34:00;99108.22;;;15.78;61.81
42887;BME280;29032;56.028;92.904;2023-08-20T02:39:02;99098.31;;;15.85;61.63
42887;BME280;29032;56.028;92.904;2023-08-20T02:44:06;99095.63;;;15.94;61.71
42887;BME280;29032;56.028;92.904;2023-08-20T02:49:08;99092.44;;;15.98;61.92
42887;BME280;29032;56.028;92.904;2023-08-20T02:54:10;99104.38;;;16.06;62.63
42887;BME280;29032;56.028;92.904;2023-08-20T02:59:13;99091.66;;;16.13;62.13
42887;BME280;29032;56.028;92.904;2023-08-20T03:04:15;99089.31;;;16.26;62.38
42887;BME280;29032;56.028;92.904;2023-08-20T03:09:17;99091.03;;;16.47;63.24
42887;BME280;29032;56.028;92.904;2023-08-20T03:14:21;99091.28;;;16.66;62.01
42887;BME280;29032;56.028;92.904;2023-08-20T03:19:23;99083.44;;;16.72;61.37
42887;BME280;29032;56.028;92.904;2023-08-20T03:24:25;99081.53;;;16.75;61.59
42887;BME280;29032;56.028;92.904;2023-08-20T03:29:28;99083.47;;;16.90;62.19
42887;BME280;29032;56.028;92.904;2023-08-20T03:34:31;99082.56;;;16.87;60.29
42887;BME280;29032;56.028;92.904;2023-08-20T03:39:33;99086.97;;;16.98;61.85
42887;BME280;29032;56.028;92.904;2023-08-20T03:44:37;99080.38;;;17.20;61.13
42887;BME280;29032;56.028;92.904;2023-08-20T03:49:39;99075.78;;;17.32;60.89
42887;BME280;29032;56.028;92.904;2023-08-20T03:54:42;99077.19;;;17.41;60.99
42887;BME280;29032;56.028;92.904;2023-08-20T03:59:46;99074.44;;;17.51;60.88
42887;BME280;29032;56.028;92.904;2023-08-20T04:04:49;99066.19;;;17.53;60.49
42887;BME280;29032;56.028;92.904;2023-08-20T04:09:51;99065.22;;;17.58;60.03
42887;BME280;29032;56.028;92.904;2023-08-20T04:14:54;99066.38;;;17.72;60.50
42887;BME280;29032;56.028;92.904;2023-08-20T04:19:57;99060.91;;;17.74;58.31
42887;BME280;29032;56.028;92.904;2023-08-20T04:24:59;99057.59;;;17.85;59.72
42887;BME280;29032;56.028;92.904;2023-08-20T04:30:03;99054.84;;;17.95;58.13
42887;BME280;29032;56.028;92.904;2023-08-20T04:35:06;99058.72;;;18.00;59.59
42887;BME280;29032;56.028;92.904;2023-08-20T04:40:10;99052.84;;;18.05;59.46
42887;BME280;29032;56.028;92.904;2023-08-20T04:45:15;99057.91;;;18.16;59.43
42887;BME280;29032;56.028;92.904;2023-08-20T04:50:17;99050.81;;;18.15;58.58
42887;BME280;29032;56.028;92.904;2023-08-20T04:55:19;99054.69;;;18.20;59.55
42887;BME280;29032;56.028;92.904;2023-08-20T05:00:23;99050.19;;;18.34;59.90
42887;BME280;29032;56.028;92.904;2023-08-20T05:05:29;99045.50;;;18.46;58.67
42887;BME280;29032;56.028;92.904;2023-08-20T05:10:32;99040.50;;;18.55;58.05
42887;BME280;29032;56.028;92.904;2023-08-20T05:15:35;99042.63;;;18.64;55.67
42887;BME280;29032;56.028;92.904;2023-08-20T05:20:39;99042.94;;;18.68;56.04
42887;BME280;29032;56.028;92.904;2023-08-20T05:25:41;99036.91;;;18.81;56.32
42887;BME280;29032;56.028;92.904;2023-08-20T05:30:54;99035.63;;;19.01;54.62
42887;BME280;29032;56.028;92.904;2023-08-20T05:35:59;99029.41;;;19.13;54.77
42887;BME280;29032;56.028;92.904;2023-08-20T05:41:01;99028.69;;;19.32;53.45
42887;BME280;29032;56.028;92.904;2023-08-20T05:46:05;99025.59;;;19.56;52.69
42887;BME280;29032;56.028;92.904;2023-08-20T05:51:07;99035.38;;;19.55;53.21
42887;BME280;29032;56.028;92.904;2023-08-20T05:56:09;99022.31;;;19.50;53.22
42887;BME280;29032;56.028;92.904;2023-08-20T06:01:13;99021.16;;;19.53;54.21
42887;BME280;29032;56.028;92.904;2023-08-20T06:06:15;99013.16;;;19.60;53.84
42887;BME280;29032;56.028;92.904;2023-08-20T06:11:17;99019.56;;;20.10;53.30
42887;BME280;29032;56.028;92.904;2023-08-20T06:16:21;99011.84;;;20.52;50.20
42887;BME280;29032;56.028;92.904;2023-08-20T06:21:23;99009.00;;;20.83;49.29
42887;BME280;29032;56.028;92.904;2023-08-20T06:26:25;99013.44;;;21.07;48.86
42887;BME280;29032;56.028;92.904;2023-08-20T06:31:29;99005.75;;;21.41;49.83
42887;BME280;29032;56.028;92.904;2023-08-20T06:36:31;99003.41;;;21.70;49.62
42887;BME280;29032;56.028;92.904;2023-08-20T06:41:33;99007.59;;;21.69;47.97
42887;BME280;29032;56.028;92.904;2023-08-20T06:46:37;99003.66;;;21.63;49.54
42887;BME280;29032;56.028;92.904;2023-08-20T06:51:39;99005.06;;;21.52;46.95
42887;BME280;29032;56.028;92.904;2023-08-20T06:56:41;98998.94;;;21.23;49.18
42887;BME280;29032;56.028;92.904;2023-08-20T07:01:44;99004.47;;;21.20;48.98
42887;BME280;29032;56.028;92.904;2023-08-20T07:06:46;98994.69;;;21.33;49.10
42887;BME280;29032;56.028;92.904;2023-08-20T07:11:48;99003.03;;;21.31;47.89
42887;BME280;29032;56.028;92.904;2023-08-20T07:16:52;98999.06;;;21.25;48.04
42887;BME280;29032;56.028;92.904;2023-08-20T07:21:54;98991.69;;;21.19;48.31
42887;BME280;29032;56.028;92.904;2023-08-20T07:26:56;98990.94;;;21.19;47.90
42887;BME280;29032;56.028;92.904;2023-08-20T07:31:59;99001.38;;;21.16;48.92
42887;BME280;29032;56.028;92.904;2023-08-20T07:37:01;98988.84;;;20.98;49.07
42887;BME280;29032;56.028;92.904;2023-08-20T07:42:04;98992.75;;;20.93;51.04
42887;BME280;29032;56.028;92.904;2023-08-20T07:47:07;98988.50;;;21.04;49.63
42887;BME280;29032;56.028;92.904;2023-08-20T07:52:09;98980.53;;;21.00;50.78
42887;BME280;29032;56.028;92.904;2023-08-20T07:57:12;98974.63;;;20.96;49.29
42887;BME280;29032;56.028;92.904;2023-08-20T08:02:15;98988.19;;;21.09;48.85
42887;BME280;29032;56.028;92.904;2023-08-20T08:07:17;98986.38;;;20.92;50.12
42887;BME280;29032;56.028;92.904;2023-08-20T08:12:19;98986.75;;;20.99;49.64
42887;BME280;29032;56.028;92.904;2023-08-20T08:17:23;98990.34;;;20.99;48.33
42887;BME280;29032;56.028;92.904;2023-08-20T08:22:25;98997.88;;;20.85;48.17
42887;BME280;29032;56.028;92.904;2023-08-20T08:27:27;99001.56;;;20.87;49.09
42887;BME280;29032;56.028;92.904;2023-08-20T08:32:30;98991.28;;;20.92;49.77
42887;BME280;29032;56.028;92.904;2023-08-20T08:37:32;99003.50;;;20.85;49.48
42887;BME280;29032;56.028;92.904;2023-08-20T08:42:34;99007.28;;;20.99;49.41
42887;BME280;29032;56.028;92.904;2023-08-20T08:47:39;99007.78;;;21.07;48.99
42887;BME280;29032;56.028;92.904;2023-08-20T08:52:42;99008.00;;;21.00;49.38
42887;BME280;29032;56.028;92.904;2023-08-20T08:57:46;99012.75;;;20.97;49.08
42887;BME280;29032;56.028;92.904;2023-08-20T09:02:50;99025.38;;;20.96;49.77
42887;BME280;29032;56.028;92.904;2023-08-20T09:07:55;99022.97;;;21.02;49.70
42887;BME280;29032;56.028;92.904;2023-08-20T09:12:57;99025.66;;;21.00;49.47
42887;BME280;29032;56.028;92.904;2023-08-20T09:18:03;99028.50;;;21.22;49.23
42887;BME280;29032;56.028;92.904;2023-08-20T09:23:11;99027.78;;;21.54;49.50
42887;BME280;29032;56.028;92.904;2023-08-20T09:28:13;99035.94;;;21.71;50.19
42887;BME280;29032;56.028;92.904;2023-08-20T09:33:17;99036.59;;;21.82;50.07
42887;BME280;29032;56.028;92.904;2023-08-20T09:38:19;99034.19;;;21.88;51.26
42887;BME280;29032;56.028;92.904;2023-08-20T09:43:23;99040.84;;;21.92;50.28
42887;BME280;29032;56.028;92.904;2023-08-20T09:48:27;99042.53;;;21.86;51.55
42887;BME280;29032;56.028;92.904;2023-08-20T09:53:36;99045.75;;;21.92;52.37
42887;BME280;29032;56.028;92.904;2023-08-20T09:58:40;99054.22;;;22.03;49.84
42887;BME280;29032;56.028;92.904;2023-08-20T10:03:43;99050.16;;;21.95;52.34
42887;BME280;29032;56.028;92.904;2023-08-20T10:08:46;99052.53;;;21.98;51.10
42887;BME280;29032;56.028;92.904;2023-08-20T10:13:49;99056.38;;;22.50;51.46
42887;BME280;29032;56.028;92.904;2023-08-20T10:18:52;99063.47;;;23.21;49.45
42887;BME280;29032;56.028;92.904;2023-08-20T10:23:54;99063.75;;;23.88;48.20
42887;BME280;29032;56.028;92.904;2023-08-20T10:34:36;99056.97;;;23.56;48.80
42887;BME280;29032;56.028;92.904;2023-08-20T10:39:39;99062.28;;;22.89;49.31
42887;BME280;29032;56.028;92.904;2023-08-20T10:45:00;99057.38;;;22.66;50.38
42887;BME280;29032;56.028;92.904;2023-08-20T10:50:04;99054.63;;;22.10;51.29
42887;BME280;29032;56.028;92.904;2023-08-20T10:55:07;99054.50;;;21.74;52.54
42887;BME280;29032;56.028;92.904;2023-08-20T11:00:15;99054.25;;;21.70;49.62
42887;BME280;29032;56.028;92.904;2023-08-20T11:05:19;99051.72;;;21.53;48.96
42887;BME280;29032;56.028;92.904;2023-08-20T11:10:22;99053.38;;;21.35;51.28
42887;BME280;29032;56.028;92.904;2023-08-20T11:15:24;99054.31;;;21.28;50.14
42887;BME280;29032;56.028;92.904;2023-08-20T11:20:27;99052.97;;;21.29;49.44
42887;BME280;29032;56.028;92.904;2023-08-20T11:25:29;99046.38;;;21.14;49.53
42887;BME280;29032;56.028;92.904;2023-08-20T11:30:32;99053.09;;;21.09;50.73
42887;BME280;29032;56.028;92.904;2023-08-20T11:35:36;99054.34;;;20.97;51.77
42887;BME280;29032;56.028;92.904;2023-08-20T11:40:38;99059.22;;;20.75;51.64
42887;BME280;29032;56.028;92.904;2023-08-20T11:45:47;99067.44;;;20.92;49.63
42887;BME280;29032;56.028;92.904;2023-08-20T11:50:51;99054.28;;;20.85;51.18
42887;BME280;29032;56.028;92.904;2023-08-20T11:55:53;99071.34;;;20.77;51.12
42887;BME280;29032;56.028;92.904;2023-08-20T12:00:55;99062.16;;;20.77;49.75
42887;BME280;29032;56.028;92.904;2023-08-20T12:05:59;99065.66;;;20.65;51.79
42887;BME280;29032;56.028;92.904;2023-08-20T12:11:01;99062.03;;;20.44;52.08
42887;BME280;29032;56.028;92.904;2023-08-20T12:16:03;99063.38;;;20.33;53.70
42887;BME280;29032;56.028;92.904;2023-08-20T12:21:06;99069.31;;;20.37;52.52
42887;BME280;29032;56.028;92.904;2023-08-20T12:26:08;99063.41;;;20.23;52.98
42887;BME280;29032;56.028;92.904;2023-08-20T12:31:10;99067.88;;;20.17;54.07
42887;BME280;29032;56.028;92.904;2023-08-20T12:36:14;99070.38;;;20.12;54.71
42887;BME280;29032;56.028;92.904;2023-08-20T12:41:16;99064.66;;;19.91;55.72
42887;BME280;29032;56.028;92.904;2023-08-20T12:46:18;99073.56;;;19.78;56.06
42887;BME280;29032;56.028;92.904;2023-08-20T12:51:21;99080.41;;;19.75;56.65
42887;BME280;29032;56.028;92.904;2023-08-20T12:56:23;99084.84;;;19.59;56.27
42887;BME280;29032;56.028;92.904;2023-08-20T13:01:25;99079.81;;;19.47;56.83
42887;BME280;29032;56.028;92.904;2023-08-20T13:06:30;99079.66;;;19.45;56.92
42887;BME280;29032;56.028;92.904;2023-08-20T13:11:32;99085.97;;;19.36;57.07
42887;BME280;29032;56.028;92.904;2023-08-20T13:16:35;99090.13;;;19.35;56.77
42887;BME280;29032;56.028;92.904;2023-08-20T13:21:38;99098.75;;;19.37;57.29
42887;BME280;29032;56.028;92.904;2023-08-20T13:26:40;99099.16;;;19.24;57.94
42887;BME280;29032;56.028;92.904;2023-08-20T13:31:42;99107.16;;;19.27;58.41
42887;BME280;29032;56.028;92.904;2023-08-20T13:36:46;99117.53;;;19.35;58.43
42887;BME280;29032;56.028;92.904;2023-08-20T13:41:49;99109.38;;;19.29;58.24
42887;BME280;29032;56.028;92.904;2023-08-20T13:46:51;99101.19;;;19.14;57.62
42887;BME280;29032;56.028;92.904;2023-08-20T13:51:55;99119.75;;;19.26;58.41
42887;BME280;29032;56.028;92.904;2023-08-20T13:56:57;99114.41;;;19.21;58.64
42887;BME280;29032;56.028;92.904;2023-08-20T14:01:59;99116.91;;;19.17;58.74
42887;BME280;29032;56.028;92.904;2023-08-20T14:07:02;99116.75;;;19.15;58.55
42887;BME280;29032;56.028;92.904;2023-08-20T14:12:05;99122.81;;;19.01;58.53
42887;BME280;29032;56.028;92.904;2023-08-20T14:17:07;99120.84;;;18.94;58.57
42887;BME280;29032;56.028;92.904;2023-08-20T14:22:10;99127.50;;;18.89;59.23
42887;BME280;29032;56.028;92.904;2023-08-20T14:27:12;99140.59;;;18.77;59.31
42887;BME280;29032;56.028;92.904;2023-08-20T14:32:14;99134.38;;;18.69;58.96
42887;BME280;29032;56.028;92.904;2023-08-20T14:37:18;99144.25;;;18.60;59.05
42887;BME280;29032;56.028;92.904;2023-08-20T14:42:20;99140.72;;;18.42;60.05
42887;BME280;29032;56.028;92.904;2023-08-20T14:47:22;99147.03;;;18.33;60.28
42887;BME280;29032;56.028;92.904;2023-08-20T14:52:25;99149.09;;;18.33;60.53
42887;BME280;29032;56.028;92.904;2023-08-20T14:57:30;99150.53;;;18.24;59.95
42887;BME280;29032;56.028;92.904;2023-08-20T15:02:32;99140.28;;;18.19;60.62
42887;BME280;29032;56.028;92.904;2023-08-20T15:07:35;99150.78;;;18.18;60.17
42887;BME280;29032;56.028;92.904;2023-08-20T15:12:37;99151.44;;;18.09;60.41
42887;BME280;29032;56.028;92.904;2023-08-20T15:17:39;99153.50;;;18.09;60.58
42887;BME280;29032;56.028;92.904;2023-08-20T15:22:43;99154.97;;;18.10;60.77
42887;BME280;29032;56.028;92.904;2023-08-20T15:27:45;99161.28;;;18.01;60.28
42887;BME280;29032;56.028;92.904;2023-08-20T15:32:47;99155.66;;;18.01;60.76
42887;BME280;29032;56.028;92.904;2023-08-20T15:37:50;99162.34;;;18.05;59.54
42887;BME280;29032;56.028;92.904;2023-08-20T15:42:53;99165.66;;;17.94;60.78
42887;BME280;29032;56.028;92.904;2023-08-20T15:47:55;99169.06;;;17.92;60.86
42887;BME280;29032;56.028;92.904;2023-08-20T15:52:58;99169.38;;;17.97;61.30
42887;BME280;29032;56.028;92.904;2023-08-20T15:58:00;99170.22;;;17.89;61.06
42887;BME280;29032;56.028;92.904;2023-08-20T16:03:02;99173.13;;;17.82;61.37
42887;BME280;29032;56.028;92.904;2023-08-20T16:08:06;99168.81;;;17.81;61.08
42887;BME280;29032;56.028;92.904;2023-08-20T16:13:08;99165.75;;;17.69;61.64
42887;BME280;29032;56.028;92.904;2023-08-20T16:18:10;99170.84;;;17.63;61.78
42887;BME280;29032;56.028;92.904;2023-08-20T16:23:13;99168.94;;;17.65;61.72
42887;BME280;29032;56.028;92.904;2023-08-20T16:28:16;99173.50;;;17.61;62.12
42887;BME280;29032;56.028;92.904;2023-08-20T16:33:19;99170.25;;;17.64;62.11
42887;BME280;29032;56.028;92.904;2023-08-20T16:38:22;99164.84;;;17.66;62.21
42887;BME280;29032;56.028;92.904;2023-08-20T16:43:24;99171.59;;;17.63;61.78
42887;BME280;29032;56.028;92.904;2023-08-20T16:48:27;99171.25;;;17.59;61.92
42887;BME280;29032;56.028;92.904;2023-08-20T16:53:30;99167.69;;;17.59;62.50
42887;BME280;29032;56.028;92.904;2023-08-20T16:58:32;99167.19;;;17.53;62.02
42887;BME280;29032;56.028;92.904;2023-08-20T17:03:34;99172.47;;;17.49;62.26
42887;BME280;29032;56.028;92.904;2023-08-20T17:08:38;99165.38;;;17.48;62.24
42887;BME280;29032;56.028;92.904;2023-08-20T17:13:40;99159.13;;;17.39;62.94
42887;BME280;29032;56.028;92.904;2023-08-20T17:18:42;99158.91;;;17.37;63.15
42887;BME280;29032;56.028;92.904;2023-08-20T17:23:46;99164.53;;;17.37;63.39
42887;BME280;29032;56.028;92.904;2023-08-20T17:28:48;99158.41;;;17.31;63.56
42887;BME280;29032;56.028;92.904;2023-08-20T17:33:49;99159.16;;;17.32;63.39
42887;BME280;29032;56.028;92.904;2023-08-20T17:38:54;99166.59;;;17.37;63.58
42887;BME280;29032;56.028;92.904;2023-08-20T17:43:56;99168.16;;;17.30;63.45
42887;BME280;29032;56.028;92.904;2023-08-20T17:48:58;99167.81;;;17.26;63.27
42887;BME280;29032;56.028;92.904;2023-08-20T17:54:01;99164.28;;;17.26;63.88
42887;BME280;29032;56.028;92.904;2023-08-20T17:59:03;99162.31;;;17.11;63.94
42887;BME280;29032;56.028;92.904;2023-08-20T18:04:05;99161.31;;;16.99;63.53
42887;BME280;29032;56.028;92.904;2023-08-20T18:09:09;99156.84;;;16.96;64.37
42887;BME280;29032;56.028;92.904;2023-08-20T18:14:11;99157.13;;;16.82;64.41
42887;BME280;29032;56.028;92.904;2023-08-20T18:19:12;99156.78;;;16.78;64.46
42887;BME280;29032;56.028;92.904;2023-08-20T18:24:16;99162.56;;;16.80;64.74
42887;BME280;29032;56.028;92.904;2023-08-20T18:29:18;99162.66;;;16.65;64.60
42887;BME280;29032;56.028;92.904;2023-08-20T18:34:20;99162.28;;;16.61;64.49
42887;BME280;29032;56.028;92.904;2023-08-20T18:39:23;99158.19;;;16.62;64.97
42887;BME280;29032;56.028;92.904;2023-08-20T18:44:25;99163.28;;;16.56;64.84
42887;BME280;29032;56.028;92.904;2023-08-20T18:49:27;99157.13;;;16.50;64.80
42887;BME280;29032;56.028;92.904;2023-08-20T18:54:31;99158.63;;;16.51;65.12
42887;BME280;29032;56.028;92.904;2023-08-20T18:59:33;99172.66;;;16.43;65.12
42887;BME280;29032;56.028;92.904;2023-08-20T19:04:35;99173.28;;;16.34;64.88
42887;BME280;29032;56.028;92.904;2023-08-20T19:09:39;99171.03;;;16.33;65.66
42887;BME280;29032;56.028;92.904;2023-08-20T19:14:41;99178.91;;;16.26;65.48
42887;BME280;29032;56.028;92.904;2023-08-20T19:19:43;99169.59;;;16.24;65.18
42887;BME280;29032;56.028;92.904;2023-08-20T19:24:46;99174.06;;;16.19;65.34
42887;BME280;29032;56.028;92.904;2023-08-20T19:29:48;99173.03;;;16.07;65.44
42887;BME280;29032;56.028;92.904;2023-08-20T19:34:51;99175.81;;;16.07;65.51
42887;BME280;29032;56.028;92.904;2023-08-20T19:39:54;99172.28;;;16.07;66.00
42887;BME280;29032;56.028;92.904;2023-08-20T19:44:56;99181.66;;;15.94;65.97
42887;BME280;29032;56.028;92.904;2023-08-20T19:49:58;99180.53;;;15.89;66.23
42887;BME280;29032;56.028;92.904;2023-08-20T19:55:02;99173.09;;;15.92;66.81
42887;BME280;29032;56.028;92.904;2023-08-20T20:00:05;99180.00;;;15.83;66.37
42887;BME280;29032;56.028;92.904;2023-08-20T20:05:14;99179.78;;;15.89;66.78
42887;BME280;29032;56.028;92.904;2023-08-20T20:10:17;99171.78;;;15.93;66.25
42887;BME280;29032;56.028;92.904;2023-08-20T20:15:19;99174.75;;;15.87;66.52
42887;BME280;29032;56.028;92.904;2023-08-20T20:20:21;99170.50;;;15.79;66.31
42887;BME280;29032;56.028;92.904;2023-08-20T20:25:25;99174.94;;;15.89;66.37
42887;BME280;29032;56.028;92.904;2023-08-20T20:30:27;99173.81;;;15.92;65.78
42887;BME280;29032;56.028;92.904;2023-08-20T20:35:29;99176.78;;;16.02;66.15
42887;BME280;29032;56.028;92.904;2023-08-20T20:40:33;99177.47;;;16.10;65.52
42887;BME280;29032;56.028;92.904;2023-08-20T20:45:35;99187.00;;;16.15;65.28
42887;BME280;29032;56.028;92.904;2023-08-20T20:50:37;99187.53;;;16.21;65.14
42887;BME280;29032;56.028;92.904;2023-08-20T20:55:40;99180.81;;;16.16;65.08
42887;BME280;29032;56.028;92.904;2023-08-20T21:00:42;99187.25;;;15.94;65.31
42887;BME280;29032;56.028;92.904;2023-08-20T21:05:44;99184.28;;;15.77;65.74
42887;BME280;29032;56.028;92.904;2023-08-20T21:10:48;99186.56;;;15.70;66.32
42887;BME280;29032;56.028;92.904;2023-08-20T21:15:50;99183.94;;;15.65;66.08
42887;BME280;29032;56.028;92.904;2023-08-20T21:20:52;99189.31;;;15.63;66.21
42887;BME280;29032;56.028;92.904;2023-08-20T21:25:55;99189.91;;;15.61;66.21
42887;BME280;29032;56.028;92.904;2023-08-20T21:30:57;99196.81;;;15.60;65.84
42887;BME280;29032;56.028;92.904;2023-08-20T21:35:59;99184.16;;;15.52;65.85
42887;BME280;29032;56.028;92.904;2023-08-20T21:41:03;99185.63;;;15.45;66.19
42887;BME280;29032;56.028;92.904;2023-08-20T21:46:05;99186.97;;;15.29;66.09
42887;BME280;29032;56.028;92.904;2023-08-20T21:51:07;99192.56;;;15.21;66.50
42887;BME280;29032;56.028;92.904;2023-08-20T21:56:11;99189.19;;;15.23;66.45
42887;BME280;29032;56.028;92.904;2023-08-20T22:01:13;99197.03;;;15.16;66.13
42887;BME280;29032;56.028;92.904;2023-08-20T22:06:15;99200.00;;;15.18;66.20
42887;BME280;29032;56.028;92.904;2023-08-20T22:11:18;99202.63;;;15.24;66.52
42887;BME280;29032;56.028;92.904;2023-08-20T22:16:20;99216.41;;;15.14;66.20
42887;BME280;29032;56.028;92.904;2023-08-20T22:21:22;99209.50;;;15.08;66.21
42887;BME280;29032;56.028;92.904;2023-08-20T22:26:27;99224.22;;;15.08;66.66
42887;BME280;29032;56.028;92.904;2023-08-20T22:31:28;99223.84;;;15.04;66.17
42887;BME280;29032;56.028;92.904;2023-08-20T22:36:31;99220.88;;;15.02;66.25
42887;BME280;29032;56.028;92.904;2023-08-20T22:41:34;99219.72;;;15.05;66.43
42887;BME280;29032;56.028;92.904;2023-08-20T22:46:36;99230.56;;;15.01;66.33
42887;BME280;29032;56.028;92.904;2023-08-20T22:51:38;99219.00;;;15.05;66.23
42887;BME280;29032;56.028;92.904;2023-08-20T22:56:41;99214.16;;;15.20;67.22
42887;BME280;29032;56.028;92.904;2023-08-20T23:01:44;99224.41;;;15.26;66.37
42887;BME280;29032;56.028;92.904;2023-08-20T23:06:46;99220.13;;;15.25;66.48
42887;BME280;29032;56.028;92.904;2023-08-20T23:11:49;99231.31;;;15.25;66.76
42887;BME280;29032;56.028;92.904;2023-08-20T23:16:51;99224.75;;;15.07;67.00
42887;BME280;29032;56.028;92.904;2023-08-20T23:21:53;99226.44;;;15.02;66.91
42887;BME280;29032;56.028;92.904;2023-08-20T23:26:57;99234.66;;;15.08;66.90
42887;BME280;29032;56.028;92.904;2023-08-20T23:31:59;99235.94;;;15.07;66.84
42887;BME280;29032;56.028;92.904;2023-08-20T23:37:01;99235.75;;;15.12;66.95
42887;BME280;29032;56.028;92.904;2023-08-20T23:42:05;99243.22;;;15.17;66.90
42887;BME280;29032;56.028;92.904;2023-08-20T23:47:07;99250.69;;;15.15;66.79
42887;BME280;29032;56.028;92.904;2023-08-20T23:52:09;99242.09;;;15.20;66.96
42887;BME280;29032;56.028;92.904;2023-08-20T23:57:12;99244.94;;;15.36;66.53
